Time;durP1;ratioP1;P1;durP2;ratioP2;P2;SDS_P1;SDS_P2;PMS_P1;PMS_P2;Temp;Humidity;BMP_temperature;BMP_pressure;BME280_temperature;BME280_humidity;BME280_pressure;Samples;Min_cycle;Max_cycle;Signal;HPM_P1;HPM_P2
2021/12/31 00:01:33;;;;;;;20.43;13.30;;;;;;;4.72;90.25;97650.97;4875059;29;20259;-86
2021/12/31 00:04:00;;;;;;;19.67;13.30;;;;;;;4.66;90.79;97635.66;4859135;29;20240;-86
2021/12/31 00:06:28;;;;;;;22.23;14.10;;;;;;;4.77;90.26;97648.34;4873991;29;20377;-84
2021/12/31 00:08:55;;;;;;;14.67;10.00;;;;;;;4.67;89.79;97663.03;4875494;29;20280;-81
2021/12/31 00:11:22;;;;;;;17.00;10.67;;;;;;;4.67;90.13;97667.31;4875139;29;20198;-83
2021/12/31 00:13:50;;;;;;;16.73;10.40;;;;;;;4.70;90.14;97659.56;4875515;29;20204;-80
2021/12/31 00:16:18;;;;;;;14.93;10.77;;;;;;;4.57;89.46;97635.81;4874502;29;20196;-85
2021/12/31 00:18:46;;;;;;;18.07;11.40;;;;;;;4.73;89.68;97650.13;4874966;29;20235;-81
2021/12/31 00:21:13;;;;;;;18.73;12.10;;;;;;;4.90;89.32;97661.00;4875445;29;20195;-82
2021/12/31 00:23:43;;;;;;;22.00;13.87;;;;;;;4.79;89.45;97634.66;4873498;29;20231;-84
2021/12/31 00:26:11;;;;;;;16.70;12.00;;;;;;;4.82;90.58;97654.28;4858454;29;20212;-80
2021/12/31 00:28:39;;;;;;;15.00;9.83;;;;;;;4.65;90.59;97636.56;4873685;29;20232;-88
2021/12/31 00:31:09;;;;;;;13.90;9.57;;;;;;;4.47;91.80;97652.16;4873635;29;20189;-82
2021/12/31 00:33:38;;;;;;;16.37;10.83;;;;;;;4.35;91.85;97644.59;4874695;29;20197;-84
2021/12/31 00:36:06;;;;;;;15.17;10.63;;;;;;;4.30;92.44;97651.53;4873345;29;20687;-82
2021/12/31 00:38:34;;;;;;;19.73;12.87;;;;;;;4.31;93.49;97650.63;4872464;29;20606;-82
2021/12/31 00:41:02;;;;;;;17.00;11.83;;;;;;;4.33;93.15;97666.03;4873362;29;20224;-83
2021/12/31 00:43:29;;;;;;;16.83;10.40;;;;;;;4.33;92.97;97651.47;4842702;29;20204;-83
2021/12/31 00:45:57;;;;;;;16.43;10.17;;;;;;;4.29;92.36;97637.00;4874922;29;20683;-82
2021/12/31 00:48:24;;;;;;;16.77;11.10;;;;;;;4.28;92.46;97650.69;4874696;29;20189;-83
2021/12/31 00:50:52;;;;;;;14.40;10.20;;;;;;;4.19;92.90;97643.09;4858037;29;20203;-82
2021/12/31 00:53:21;;;;;;;14.80;9.97;;;;;;;4.26;92.57;97652.44;4874108;29;20225;-80
2021/12/31 00:55:49;;;;;;;13.70;10.53;;;;;;;4.16;92.54;97614.94;4874820;29;20777;-84
2021/12/31 00:58:16;;;;;;;15.30;10.30;;;;;;;4.43;91.78;97642.81;4873056;29;20213;-86
2021/12/31 01:00:44;;;;;;;32.17;17.73;;;;;;;4.29;91.65;97633.56;4873041;29;20290;-83
2021/12/31 01:03:17;;;;;;;18.27;11.90;;;;;;;4.19;91.26;97622.59;4874506;29;20232;-85
2021/12/31 01:05:47;;;;;;;13.57;10.10;;;;;;;4.26;92.26;97637.03;4874131;29;20757;-82
2021/12/31 01:08:14;;;;;;;12.73;9.60;;;;;;;4.25;92.20;97627.63;4874620;29;20210;-84
2021/12/31 01:10:42;;;;;;;15.63;10.20;;;;;;;4.12;91.92;97606.44;4872606;29;20189;-82
2021/12/31 01:13:19;;;;;;;13.80;9.30;;;;;;;4.10;92.07;97613.28;4857971;29;20618;-82
2021/12/31 01:15:47;;;;;;;12.53;9.30;;;;;;;4.28;91.37;97624.19;4872938;29;20225;-84
2021/12/31 01:18:20;;;;;;;11.20;8.50;;;;;;;3.99;92.14;97620.25;4856942;29;20207;-81
2021/12/31 01:20:49;;;;;;;15.70;10.83;;;;;;;3.92;92.02;97623.75;4874099;29;20196;-82
2021/12/31 01:23:17;;;;;;;16.13;11.30;;;;;;;3.81;93.04;97619.59;4873941;29;20746;-82
2021/12/31 01:25:46;;;;;;;14.27;10.30;;;;;;;3.71;94.19;97618.00;4874591;29;20224;-82
2021/12/31 01:28:14;;;;;;;15.13;10.47;;;;;;;3.71;93.62;97623.94;4857376;29;20857;-84
2021/12/31 01:30:43;;;;;;;13.23;8.70;;;;;;;3.73;93.25;97623.97;4873030;29;20281;-81
2021/12/31 01:33:10;;;;;;;11.90;8.47;;;;;;;3.76;92.99;97629.03;4872836;29;20188;-85
2021/12/31 01:35:39;;;;;;;12.20;8.53;;;;;;;3.60;92.89;97614.69;4873784;29;20743;-85
2021/12/31 01:38:08;;;;;;;11.63;7.57;;;;;;;3.52;93.54;97611.34;4872690;29;20389;-83
2021/12/31 01:40:41;;;;;;;13.77;9.00;;;;;;;3.22;93.43;97569.78;4842217;29;20200;-88
2021/12/31 01:43:22;;;;;;;11.07;7.87;;;;;;;3.29;93.25;97562.91;4872497;29;20685;-87
2021/12/31 01:45:55;;;;;;;12.30;8.53;;;;;;;3.50;93.47;97587.47;4873519;29;20258;-83
2021/12/31 01:48:36;;;;;;;14.67;10.73;;;;;;;3.51;93.16;97592.56;4872050;29;20219;-87
2021/12/31 01:51:04;;;;;;;15.80;10.03;;;;;;;3.64;91.96;97596.72;4872615;29;21479;-84
2021/12/31 01:53:33;;;;;;;14.30;10.23;;;;;;;3.49;92.12;97594.28;4873152;29;20208;-83
2021/12/31 01:56:01;;;;;;;15.50;10.87;;;;;;;3.53;91.46;97613.03;4872804;29;20208;-83
2021/12/31 01:58:32;;;;;;;16.40;10.27;;;;;;;3.37;92.20;97576.50;4873197;29;20784;-82
2021/12/31 02:01:03;;;;;;;15.97;10.20;;;;;;;3.47;92.07;97613.94;4873570;29;20200;-84
2021/12/31 02:03:34;;;;;;;16.13;11.37;;;;;;;3.52;92.44;97621.59;4873718;29;20196;-85
2021/12/31 02:06:03;;;;;;;16.27;11.10;;;;;;;3.26;91.48;97589.38;4872367;29;20314;-84
2021/12/31 02:08:31;;;;;;;17.80;11.67;;;;;;;3.44;91.85;97610.56;4872824;29;20215;-86
2021/12/31 02:10:59;;;;;;;17.50;10.77;;;;;;;3.46;91.54;97602.03;4856807;29;20199;-81
2021/12/31 02:13:28;;;;;;;13.97;8.60;;;;;;;3.29;91.28;97599.59;4873831;29;20202;-82
2021/12/31 02:15:56;;;;;;;12.17;8.73;;;;;;;3.28;91.57;97608.13;4873350;29;20192;-82
2021/12/31 02:18:23;;;;;;;11.50;7.87;;;;;;;3.11;91.87;97604.03;4872237;29;20195;-85
2021/12/31 02:20:52;;;;;;;13.20;8.23;;;;;;;2.97;92.41;97593.88;4872243;29;20268;-85
2021/12/31 02:23:26;;;;;;;10.87;7.70;;;;;;;2.81;92.73;97576.09;4871659;29;20234;-85
2021/12/31 02:25:57;;;;;;;11.37;7.83;;;;;;;2.83;91.96;97572.66;4873463;29;20295;-82
2021/12/31 02:28:26;;;;;;;10.33;7.77;;;;;;;3.03;91.62;97614.28;4841051;29;20691;-82
2021/12/31 02:31:00;;;;;;;11.47;7.60;;;;;;;3.04;91.84;97618.56;4873270;29;20211;-82
2021/12/31 02:33:27;;;;;;;11.43;7.80;;;;;;;3.00;91.62;97621.16;4857432;29;20195;-81
2021/12/31 02:35:56;;;;;;;12.20;8.00;;;;;;;2.96;92.24;97612.66;4871567;29;20286;-82
2021/12/31 02:38:24;;;;;;;11.10;8.80;;;;;;;3.03;92.12;97611.72;4871511;29;20247;-80
2021/12/31 02:40:51;;;;;;;14.50;8.83;;;;;;;3.16;91.26;97641.50;4871278;29;20240;-81
2021/12/31 02:43:18;;;;;;;11.77;8.83;;;;;;;3.13;91.73;97625.31;4872387;29;20203;-80
2021/12/31 02:45:46;;;;;;;13.00;8.53;;;;;;;3.04;91.70;97631.34;4856226;29;20744;-81
2021/12/31 02:48:14;;;;;;;13.90;9.07;;;;;;;3.11;91.34;97645.78;4872864;29;20199;-80
2021/12/31 02:50:42;;;;;;;14.83;9.07;;;;;;;3.01;91.69;97631.34;4856054;29;20207;-81
2021/12/31 02:53:13;;;;;;;15.17;9.67;;;;;;;3.08;92.29;97633.03;4871378;29;20223;-81
2021/12/31 02:55:43;;;;;;;13.57;9.67;;;;;;;3.05;91.87;97627.09;4871646;29;20210;-82
2021/12/31 02:58:11;;;;;;;11.77;8.73;;;;;;;3.00;91.87;97622.00;4874216;29;20955;-83
2021/12/31 03:00:42;;;;;;;11.17;8.27;;;;;;;3.09;91.60;97637.28;4860189;29;20234;-81
2021/12/31 03:03:12;;;;;;;12.77;8.53;;;;;;;3.10;91.48;97636.41;4876210;29;20210;-81
2021/12/31 03:05:41;;;;;;;13.23;8.83;;;;;;;3.14;91.67;97625.31;4876145;29;20301;-83
2021/12/31 03:08:10;;;;;;;11.23;8.20;;;;;;;3.19;91.30;97638.91;4859466;29;20235;-81
2021/12/31 03:10:39;;;;;;;11.47;8.50;;;;;;;3.24;91.12;97646.53;4876259;29;20207;-83
2021/12/31 03:13:09;;;;;;;11.33;8.43;;;;;;;3.22;90.77;97649.13;4875357;29;20294;-83
2021/12/31 03:15:38;;;;;;;12.23;9.47;;;;;;;3.22;91.14;97646.56;4874772;29;20199;-82
2021/12/31 03:18:06;;;;;;;16.00;10.97;;;;;;;3.35;91.29;97657.56;4875022;29;20200;-83
2021/12/31 03:20:38;;;;;;;13.27;9.43;;;;;;;3.25;91.53;97651.69;4876150;29;20188;-81
2021/12/31 03:23:06;;;;;;;13.83;9.93;;;;;;;3.28;91.56;97653.34;4859402;29;20195;-81
2021/12/31 03:25:34;;;;;;;15.13;10.50;;;;;;;3.27;91.45;97678.09;4876342;29;20234;-82
2021/12/31 03:28:01;;;;;;;16.77;10.83;;;;;;;3.19;90.98;97656.81;4876045;29;21028;-85
2021/12/31 03:30:30;;;;;;;18.43;11.63;;;;;;;3.13;90.75;97649.19;4876602;29;20215;-85
2021/12/31 03:32:58;;;;;;;27.60;18.40;;;;;;;3.10;91.47;97659.44;4875554;29;20677;-86
2021/12/31 03:35:25;;;;;;;22.73;15.60;;;;;;;3.09;91.39;97664.59;4876212;29;20295;-81
2021/12/31 03:37:54;;;;;;;40.57;22.27;;;;;;;3.04;91.03;97662.06;4875801;29;20229;-85
2021/12/31 03:40:22;;;;;;;15.57;10.67;;;;;;;2.90;89.93;97648.50;4874475;29;20680;-84
2021/12/31 03:42:50;;;;;;;16.67;10.57;;;;;;;2.83;90.05;97667.28;4874721;29;20295;-82
2021/12/31 03:45:19;;;;;;;21.10;14.87;;;;;;;2.72;90.72;97676.72;4875287;29;20220;-80
2021/12/31 03:47:47;;;;;;;17.73;12.70;;;;;;;2.56;91.53;97669.97;4875743;29;20202;-83
2021/12/31 03:50:14;;;;;;;21.87;12.70;;;;;;;2.43;92.19;97645.34;4875294;29;20192;-84
2021/12/31 03:52:42;;;;;;;21.97;13.10;;;;;;;2.50;92.42;97654.66;4876108;29;20678;-84
2021/12/31 03:55:13;;;;;;;26.07;15.67;;;;;;;2.52;92.40;97668.28;4874146;29;20301;-87
2021/12/31 03:57:40;;;;;;;27.67;16.60;;;;;;;2.69;91.33;97678.44;4874255;29;20596;-83
2021/12/31 04:00:10;;;;;;;25.17;15.67;;;;;;;2.66;91.95;97686.97;4874448;29;20582;-84
2021/12/31 04:02:37;;;;;;;24.40;14.27;;;;;;;2.76;91.96;97678.38;4875248;29;20204;-82
2021/12/31 04:05:06;;;;;;;22.73;15.10;;;;;;;2.80;91.68;97680.09;4859489;29;20238;-82
2021/12/31 04:07:36;;;;;;;24.43;13.43;;;;;;;2.72;91.58;97666.47;4874097;29;20297;-84
2021/12/31 04:10:05;;;;;;;20.53;13.00;;;;;;;2.72;91.72;97661.38;4874229;29;20191;-81
2021/12/31 04:12:34;;;;;;;21.17;13.67;;;;;;;2.87;90.59;97678.34;4875226;29;20204;-84
2021/12/31 04:15:01;;;;;;;22.60;13.23;;;;;;;2.61;90.77;97663.16;4873964;29;20235;-85
2021/12/31 04:17:28;;;;;;;24.00;13.97;;;;;;;2.60;90.90;97651.22;4875399;29;20227;-81
2021/12/31 04:19:57;;;;;;;31.60;16.90;;;;;;;2.54;91.81;97671.69;4873529;29;20204;-84
2021/12/31 04:22:27;;;;;;;35.40;18.00;;;;;;;2.37;93.08;97668.38;4874125;29;20200;-80
2021/12/31 04:24:55;;;;;;;37.50;20.53;;;;;;;2.23;94.24;97659.88;4874710;29;20255;-81
2021/12/31 04:27:22;;;;;;;41.93;21.33;;;;;;;2.25;94.19;97691.38;4874987;29;20287;-85
2021/12/31 04:29:51;;;;;;;36.13;20.70;;;;;;;2.22;96.01;97684.59;4874955;29;20275;-80
2021/12/31 04:32:21;;;;;;;33.30;18.10;;;;;;;2.23;96.81;97698.19;4880908;29;20694;-81
2021/12/31 04:34:48;;;;;;;32.73;16.67;;;;;;;2.19;96.73;97686.28;4873932;29;20202;-85
2021/12/31 04:37:16;;;;;;;43.47;17.90;;;;;;;2.21;97.25;97693.09;4873296;29;20320;-86
2021/12/31 04:39:43;;;;;;;39.57;17.23;;;;;;;2.24;97.75;97702.47;4858757;29;20616;-84
2021/12/31 04:42:11;;;;;;;33.13;17.40;;;;;;;2.27;97.99;97707.56;4873182;29;20212;-85
2021/12/31 04:44:38;;;;;;;24.13;15.60;;;;;;;2.24;97.46;97698.22;4874796;29;20239;-84
2021/12/31 04:47:06;;;;;;;31.20;16.20;;;;;;;2.30;97.16;97722.91;4874644;29;20707;-88
2021/12/31 04:49:33;;;;;;;30.00;15.07;;;;;;;2.18;97.51;97700.78;4874573;29;20615;-82
2021/12/31 04:52:00;;;;;;;42.10;16.20;;;;;;;2.39;97.31;97723.72;4875025;29;20212;-85
2021/12/31 04:54:28;;;;;;;56.47;19.27;;;;;;;2.28;97.13;97724.59;4874743;29;20209;-87
2021/12/31 04:56:57;;;;;;;44.40;18.37;;;;;;;2.10;97.02;97717.81;4843351;29;20196;-87
2021/12/31 04:59:26;;;;;;;32.23;16.80;;;;;;;2.08;97.64;97701.63;4874172;29;20184;-85
2021/12/31 05:01:54;;;;;;;34.77;17.53;;;;;;;2.27;97.20;97720.34;4874562;29;20199;-84
2021/12/31 05:04:21;;;;;;;33.27;18.90;;;;;;;2.32;96.54;97696.50;4874148;29;20687;-84
2021/12/31 05:06:51;;;;;;;32.80;19.20;;;;;;;2.55;95.86;97734.75;4872710;29;20655;-84
2021/12/31 05:09:20;;;;;;;23.40;15.70;;;;;;;2.56;94.83;97726.22;4874172;29;20696;-85
2021/12/31 05:11:48;;;;;;;27.10;16.80;;;;;;;2.51;93.83;97727.94;4872730;29;20214;-86
2021/12/31 05:14:17;;;;;;;28.30;17.03;;;;;;;2.56;93.76;97725.34;4874648;29;20268;-81
2021/12/31 05:16:44;;;;;;;23.70;15.57;;;;;;;2.47;93.27;97727.09;4874224;29;20203;-87
2021/12/31 05:19:11;;;;;;;21.97;14.93;;;;;;;2.40;93.02;97724.56;4874221;29;20207;-85
2021/12/31 05:21:40;;;;;;;20.27;13.47;;;;;;;2.34;92.58;97728.00;4853441;29;20216;-81
2021/12/31 05:24:08;;;;;;;69.57;37.03;;;;;;;2.13;93.39;97725.47;4855457;29;20283;-86
2021/12/31 05:26:35;;;;;;;32.90;21.90;;;;;;;1.79;95.09;97739.16;4854081;29;20236;-83
2021/12/31 05:29:03;;;;;;;35.60;23.13;;;;;;;1.96;95.43;97739.97;4855059;29;20279;-84
2021/12/31 05:31:30;;;;;;;32.60;18.97;;;;;;;2.17;94.93;97736.53;4855763;29;20204;-85
2021/12/31 05:33:58;;;;;;;25.70;18.57;;;;;;;2.26;94.39;97736.53;4854771;29;20753;-81
2021/12/31 05:36:25;;;;;;;28.17;18.37;;;;;;;2.36;93.66;97740.75;4854060;29;20200;-85
2021/12/31 05:38:52;;;;;;;30.80;18.83;;;;;;;2.36;92.69;97739.06;4855011;29;20228;-83
2021/12/31 05:41:20;;;;;;;32.13;19.90;;;;;;;2.09;92.96;97726.34;4854941;29;20264;-80
2021/12/31 05:43:47;;;;;;;33.37;19.57;;;;;;;2.20;92.86;97732.28;4855274;29;20245;-80
2021/12/31 05:46:14;;;;;;;29.13;19.80;;;;;;;1.94;93.88;97748.50;4854751;29;20656;-84
2021/12/31 05:48:42;;;;;;;25.73;17.10;;;;;;;1.57;94.66;97743.41;4854229;29;20244;-86
2021/12/31 05:51:09;;;;;;;37.30;17.77;;;;;;;1.35;96.30;97741.69;4838071;29;20670;-80
2021/12/31 05:53:37;;;;;;;66.37;18.83;;;;;;;1.14;96.40;97736.53;4855429;29;20221;-83
2021/12/31 05:56:04;;;;;;;46.17;16.30;;;;;;;1.13;97.75;97749.28;4855368;29;20200;-83
2021/12/31 05:58:33;;;;;;;32.67;17.37;;;;;;;1.15;98.81;97743.34;4853870;29;20198;-85
2021/12/31 06:01:00;;;;;;;27.63;16.80;;;;;;;1.24;98.97;97743.34;4855755;29;20283;-87
2021/12/31 06:03:31;;;;;;;27.60;16.27;;;;;;;1.41;99.32;97741.69;4854615;29;20203;-84
2021/12/31 06:06:01;;;;;;;28.13;17.70;;;;;;;1.43;98.17;97742.53;4854442;29;20238;-85
2021/12/31 06:08:31;;;;;;;33.27;18.70;;;;;;;1.40;97.58;97732.31;4854649;29;20197;-84
2021/12/31 06:10:58;;;;;;;30.27;18.17;;;;;;;1.58;97.23;97745.13;4853508;29;20278;-85
2021/12/31 06:13:29;;;;;;;40.33;22.17;;;;;;;1.63;97.49;97740.84;4838675;29;20204;-81
2021/12/31 06:16:02;;;;;;;32.63;18.97;;;;;;;1.76;97.11;97743.38;4855609;29;20208;-83
2021/12/31 06:18:29;;;;;;;31.10;20.17;;;;;;;1.82;97.85;97739.13;4854843;29;20201;-84
2021/12/31 06:20:56;;;;;;;33.13;21.13;;;;;;;1.92;97.71;97733.16;4855298;29;20715;-83
2021/12/31 06:23:24;;;;;;;34.93;19.83;;;;;;;1.75;97.79;97686.41;4855395;29;20200;-84
2021/12/31 06:25:53;;;;;;;32.97;19.77;;;;;;;2.13;96.68;97729.72;4846057;29;20587;-81
2021/12/31 06:28:20;;;;;;;35.20;21.10;;;;;;;2.21;95.83;97733.97;4876478;29;20198;-84
2021/12/31 06:30:47;;;;;;;28.07;16.93;;;;;;;2.21;94.75;97728.00;4885184;29;20211;-83
2021/12/31 06:33:15;;;;;;;25.73;17.43;;;;;;;2.27;94.90;97739.06;4889061;29;20199;-85
2021/12/31 06:35:43;;;;;;;29.10;18.87;;;;;;;2.53;94.51;97758.59;4897933;29;20194;-84
2021/12/31 06:38:11;;;;;;;33.90;21.77;;;;;;;2.63;93.22;97761.13;4897705;29;20730;-84
2021/12/31 06:40:39;;;;;;;37.30;23.40;;;;;;;2.63;92.87;97744.94;4883854;29;20198;-82
2021/12/31 06:43:07;;;;;;;35.10;22.70;;;;;;;2.64;92.91;97756.88;4881058;29;20200;-85
2021/12/31 06:45:36;;;;;;;33.03;21.77;;;;;;;2.74;92.05;97784.13;4884033;29;20235;-81
2021/12/31 06:48:05;;;;;;;37.77;20.83;;;;;;;2.71;92.42;97781.56;4883933;29;20203;-83
2021/12/31 06:50:34;;;;;;;36.80;21.37;;;;;;;2.83;92.19;97791.75;4879262;29;20204;-83
2021/12/31 06:53:02;;;;;;;47.37;27.63;;;;;;;2.76;92.01;97770.44;4877678;29;20255;-83
2021/12/31 06:55:32;;;;;;;46.80;28.60;;;;;;;2.70;91.25;97793.47;4876337;29;20291;-81
2021/12/31 06:58:01;;;;;;;39.80;27.63;;;;;;;2.77;92.25;97802.84;4876904;29;20225;-81
2021/12/31 07:00:29;;;;;;;41.80;27.90;;;;;;;2.53;92.07;97751.81;4875109;29;20860;-83
2021/12/31 07:03:06;;;;;;;43.10;28.03;;;;;;;3.00;91.67;97805.31;4876312;29;20720;-80
2021/12/31 07:05:35;;;;;;;49.00;32.00;;;;;;;3.02;91.61;97804.47;4875184;29;20220;-83
2021/12/31 07:08:16;;;;;;;55.37;33.60;;;;;;;3.19;90.64;97812.91;4874076;29;20223;-81
2021/12/31 07:10:43;;;;;;;43.40;28.07;;;;;;;3.09;90.28;97808.69;4875244;29;20288;-83
2021/12/31 07:13:12;;;;;;;43.57;29.33;;;;;;;3.19;90.75;97823.13;4876134;29;20200;-87
2021/12/31 07:15:41;;;;;;;47.90;28.93;;;;;;;3.26;90.46;97817.16;4881331;29;20197;-85
2021/12/31 07:18:10;;;;;;;48.03;30.33;;;;;;;3.28;89.66;97802.63;4875846;29;20201;-81
2021/12/31 07:20:38;;;;;;;48.70;31.03;;;;;;;3.25;89.77;97810.34;4875298;29;20708;-82
2021/12/31 07:23:09;;;;;;;48.60;31.20;;;;;;;3.40;89.50;97811.13;4876156;29;20682;-84
2021/12/31 07:25:38;;;;;;;67.43;39.87;;;;;;;3.48;89.20;97805.09;4855758;29;20299;-84
2021/12/31 07:28:12;;;;;;;61.73;36.43;;;;;;;3.47;88.82;97803.38;4856867;29;20302;-85
2021/12/31 07:30:41;;;;;;;54.97;34.33;;;;;;;3.52;88.93;97809.34;4875935;29;20230;-82
2021/12/31 07:33:22;;;;;;;66.07;38.53;;;;;;;3.68;88.87;97821.19;4874687;29;20219;-83
2021/12/31 07:35:53;;;;;;;62.67;36.73;;;;;;;3.60;88.56;97822.09;4857661;29;20200;-87
2021/12/31 07:38:31;;;;;;;55.27;33.73;;;;;;;3.40;88.53;97816.25;4856372;29;20236;-87
2021/12/31 07:40:59;;;;;;;48.87;30.83;;;;;;;3.29;89.35;97831.66;4857882;29;20679;-87
2021/12/31 07:43:27;;;;;;;52.87;31.63;;;;;;;3.20;90.15;97834.22;4857144;29;20556;-82
2021/12/31 07:45:55;;;;;;;53.23;31.27;;;;;;;3.08;91.08;97826.59;4856360;29;20241;-82
2021/12/31 07:48:23;;;;;;;60.33;34.17;;;;;;;3.14;90.91;97808.69;4857026;29;20197;-81
2021/12/31 07:50:54;;;;;;;53.83;32.10;;;;;;;3.15;90.61;97816.34;4873518;29;20187;-81
2021/12/31 07:53:22;;;;;;;46.77;27.67;;;;;;;3.19;89.98;97828.25;4883311;29;20643;-82
2021/12/31 07:55:50;;;;;;;47.47;24.90;;;;;;;2.86;91.32;97838.63;4879845;29;20203;-81
2021/12/31 07:58:27;;;;;;;50.90;24.17;;;;;;;2.75;91.60;97825.03;4871032;29;20291;-84
2021/12/31 08:00:55;;;;;;;42.07;18.77;;;;;;;2.56;92.23;97835.28;4857590;29;20195;-82
2021/12/31 08:03:25;;;;;;;45.53;19.47;;;;;;;2.40;93.98;97821.69;4893871;29;20199;-83
2021/12/31 08:05:59;;;;;;;50.40;17.50;;;;;;;2.48;95.21;97830.19;4891933;29;20745;-82
2021/12/31 08:08:28;;;;;;;34.90;18.17;;;;;;;2.67;94.93;97834.41;4893351;29;20191;-81
2021/12/31 08:10:57;;;;;;;64.70;17.50;;;;;;;2.58;94.74;97821.63;4893610;29;20192;-82
2021/12/31 08:13:27;;;;;;;38.10;15.17;;;;;;;2.29;94.47;97819.13;4892810;29;20187;-81
2021/12/31 08:15:55;;;;;;;39.17;17.27;;;;;;;2.45;95.99;97840.44;4893914;29;20294;-80
2021/12/31 08:18:23;;;;;;;40.13;16.53;;;;;;;2.53;96.56;97833.59;4893529;29;20218;-80
2021/12/31 08:20:50;;;;;;;36.13;13.87;;;;;;;2.50;95.94;97833.59;4891936;29;20718;-81
2021/12/31 08:23:18;;;;;;;32.13;16.20;;;;;;;2.32;96.93;97808.94;4892823;29;20620;-78
2021/12/31 08:25:48;;;;;;;30.93;15.33;;;;;;;2.53;97.54;97813.16;4892997;29;20215;-85
2021/12/31 08:28:15;;;;;;;39.13;15.47;;;;;;;2.71;96.63;97825.88;4879441;29;20212;-83
2021/12/31 08:30:43;;;;;;;27.00;12.07;;;;;;;2.54;97.03;97811.41;4872923;29;20294;-82
2021/12/31 08:33:11;;;;;;;44.10;11.57;;;;;;;2.50;97.00;97818.25;4874571;29;20203;-87
2021/12/31 08:35:39;;;;;;;27.77;11.90;;;;;;;2.46;98.39;97793.56;4842536;29;20290;-83
2021/12/31 08:38:10;;;;;;;23.40;11.87;;;;;;;2.67;97.90;97811.41;4872043;29;20246;-86
2021/12/31 08:40:38;;;;;;;27.77;15.00;;;;;;;2.88;97.73;97782.34;4874139;29;20204;-81
2021/12/31 08:43:07;;;;;;;29.40;14.77;;;;;;;2.96;96.66;97796.81;4872143;29;20204;-80
2021/12/31 08:45:37;;;;;;;37.93;19.97;;;;;;;2.96;96.32;97791.72;4874807;29;20595;-84
2021/12/31 08:48:20;;;;;;;57.77;27.63;;;;;;;2.95;96.47;97772.09;4857417;29;20212;-84
2021/12/31 08:51:03;;;;;;;46.23;19.67;;;;;;;3.05;95.69;97804.44;4873805;29;20230;-82
2021/12/31 08:53:34;;;;;;;38.23;17.90;;;;;;;3.14;96.08;97799.28;4873450;29;20203;-83
2021/12/31 08:56:05;;;;;;;36.70;19.33;;;;;;;3.27;95.91;97800.94;4873038;29;20214;-86
2021/12/31 08:58:40;;;;;;;30.83;18.03;;;;;;;3.17;95.83;97766.00;4872719;29;20204;-86
2021/12/31 09:01:17;;;;;;;30.93;16.63;;;;;;;3.42;95.02;97784.63;4842770;29;20231;-85
2021/12/31 09:03:49;;;;;;;41.10;16.73;;;;;;;3.39;95.78;97789.78;4874442;29;20242;-87
2021/12/31 09:06:25;;;;;;;42.87;19.50;;;;;;;3.32;96.14;97782.97;4872413;29;20230;-83
2021/12/31 09:08:53;;;;;;;33.77;16.13;;;;;;;3.04;96.71;97726.00;4875042;29;20204;-85
2021/12/31 09:11:23;;;;;;;33.47;18.80;;;;;;;3.46;97.26;97759.88;4874340;29;20214;-85
2021/12/31 09:23:21;;;;;;;29.67;18.03;;;;;;;3.76;97.23;97754.53;4885387;29;20644;-70
2021/12/31 09:25:49;;;;;;;29.90;17.73;;;;;;;3.67;97.94;97749.50;4891821;29;20245;-70
2021/12/31 09:28:16;;;;;;;28.60;17.43;;;;;;;3.70;97.64;97752.03;4890457;29;20195;-69
2021/12/31 09:30:44;;;;;;;31.17;19.40;;;;;;;3.82;97.17;97754.47;4889868;29;20666;-69
2021/12/31 09:33:11;;;;;;;31.50;18.57;;;;;;;3.87;97.34;97738.25;4891335;29;20192;-69
2021/12/31 09:35:39;;;;;;;27.57;18.63;;;;;;;4.05;96.67;97734.66;4891130;29;20195;-70
2021/12/31 09:38:09;;;;;;;29.50;18.90;;;;;;;4.28;95.54;97735.28;4891231;29;20195;-69
2021/12/31 09:40:36;;;;;;;26.70;18.10;;;;;;;4.55;95.21;97737.56;4880328;29;20230;-72
2021/12/31 09:43:08;;;;;;;31.40;18.30;;;;;;;4.72;94.49;97724.53;4872428;29;20197;-70
2021/12/31 09:45:40;;;;;;;22.50;14.07;;;;;;;4.99;92.03;97723.34;4875292;29;20208;-71
2021/12/31 09:48:11;;;;;;;17.40;12.83;;;;;;;5.15;90.38;97714.56;4890784;29;20235;-68
2021/12/31 09:50:45;;;;;;;22.97;13.97;;;;;;;5.40;91.11;97705.66;4889223;29;20204;-69
2021/12/31 09:53:26;;;;;;;24.47;15.33;;;;;;;5.52;89.65;97708.88;4888361;29;20200;-69
2021/12/31 09:56:39;;;;;;;25.83;15.17;;;;;;;5.75;89.80;97699.09;4869993;29;20581;-69
2021/12/31 09:59:21;;;;;;;22.30;15.57;;;;;;;6.03;88.57;97698.66;4867858;29;20233;-69
2021/12/31 10:01:51;;;;;;;22.93;14.70;;;;;;;6.24;88.60;97688.00;4891311;29;20206;-69
2021/12/31 10:04:19;;;;;;;20.73;13.97;;;;;;;6.49;86.76;97679.78;4873326;29;20206;-69
2021/12/31 10:07:11;;;;;;;28.20;19.03;;;;;;;6.74;86.91;97680.13;4880645;29;20265;-70
2021/12/31 10:09:40;;;;;;;24.10;15.50;;;;;;;6.93;85.56;97668.56;4889817;29;20295;-68
2021/12/31 10:12:15;;;;;;;25.43;16.60;;;;;;;6.98;84.62;97665.91;4890906;29;20209;-70
2021/12/31 10:14:42;;;;;;;21.07;15.53;;;;;;;7.23;83.62;97672.22;4880542;29;20684;-70
2021/12/31 10:17:09;;;;;;;22.53;15.00;;;;;;;7.30;82.93;97658.31;4872142;29;20215;-69
2021/12/31 10:19:54;;;;;;;16.93;11.03;;;;;;;7.45;81.82;97669.97;4872641;29;20633;-70
2021/12/31 10:22:21;;;;;;;8.47;6.93;;;;;;;7.22;80.07;97637.03;4871587;29;20254;-69
2021/12/31 10:24:48;;;;;;;13.20;7.23;;;;;;;7.55;79.28;97664.56;4887898;29;20202;-72
2021/12/31 10:53:34;;;;;;;9.30;7.30;;;;;;;8.58;75.32;97659.31;3177712;23;20243;-86
2021/12/31 10:56:45;;;;;;;11.37;8.43;;;;;;;8.57;75.71;97648.16;4973868;28;20201;-86
2021/12/31 11:00:05;;;;;;;16.30;8.67;;;;;;;8.74;76.53;97653.69;4972838;28;20275;-87
2021/12/31 11:02:39;;;;;;;14.87;8.97;;;;;;;8.76;76.34;97639.00;4980187;28;20196;-86
2021/12/31 11:05:10;;;;;;;14.93;9.43;;;;;;;8.92;75.35;97634.25;4976855;28;20203;-86
2021/12/31 11:08:21;;;;;;;15.57;9.90;;;;;;;8.93;76.37;97639.34;4936138;29;20229;-85
2021/12/31 11:11:42;;;;;;;15.33;8.93;;;;;;;9.09;75.99;97639.72;4936274;29;20631;-85
2021/12/31 11:15:03;;;;;;;19.87;13.10;;;;;;;9.07;75.82;97618.25;4962862;28;20200;-83
2021/12/31 11:17:44;;;;;;;30.13;14.60;;;;;;;8.93;75.97;97612.69;4954867;28;20572;-85
2021/12/31 11:20:18;;;;;;;21.67;12.27;;;;;;;8.82;76.01;97570.84;4971887;28;20196;-83
2021/12/31 11:22:46;;;;;;;24.07;11.80;;;;;;;8.72;77.46;97608.13;4976692;28;20193;-82
2021/12/31 11:25:33;;;;;;;20.13;11.50;;;;;;;8.68;78.73;97588.47;4974786;28;20185;-82
2021/12/31 11:28:00;;;;;;;17.97;9.53;;;;;;;8.71;79.80;97547.09;4974491;28;20228;-83
2021/12/31 11:30:40;;;;;;;13.83;9.27;;;;;;;8.67;81.33;97584.22;4973612;28;20208;-83
2021/12/31 11:33:08;;;;;;;16.30;10.53;;;;;;;8.58;81.43;97569.84;4974591;28;20251;-84
2021/12/31 11:35:38;;;;;;;14.80;10.40;;;;;;;8.73;81.71;97599.53;4970080;28;20198;-84
2021/12/31 11:38:28;;;;;;;12.83;8.60;;;;;;;8.79;80.84;97605.34;4954283;29;20260;-81
2021/12/31 11:41:07;;;;;;;10.30;7.27;;;;;;;8.63;80.55;97575.72;4950481;29;20209;-84
2021/12/31 11:43:41;;;;;;;14.87;8.30;;;;;;;8.87;81.02;97612.88;4953537;29;20197;-82
2021/12/31 11:46:12;;;;;;;16.03;11.40;;;;;;;8.90;80.51;97612.78;4955680;28;20198;-82
2021/12/31 11:48:48;;;;;;;13.07;8.97;;;;;;;8.92;80.13;97611.00;4953905;28;20253;-82
2021/12/31 11:51:17;;;;;;;15.60;10.40;;;;;;;8.96;80.42;97602.25;4955173;28;20287;-82
2021/12/31 11:53:55;;;;;;;13.73;9.77;;;;;;;9.01;79.41;97590.03;4961574;28;20243;-82
2021/12/31 11:56:45;;;;;;;15.53;10.07;;;;;;;9.03;79.02;97583.94;4974036;28;20274;-82
2021/12/31 11:59:21;;;;;;;12.97;9.30;;;;;;;9.13;78.63;97584.50;4941618;28;20228;-83
2021/12/31 12:01:55;;;;;;;17.77;10.20;;;;;;;9.11;77.99;97575.94;4971984;28;20200;-81
2021/12/31 12:04:32;;;;;;;15.30;10.63;;;;;;;9.24;78.41;97572.09;4956340;28;20208;-82
2021/12/31 12:07:11;;;;;;;12.83;9.20;;;;;;;9.16;77.65;97574.06;4974336;28;20224;-83
2021/12/31 12:09:41;;;;;;;13.43;9.67;;;;;;;9.15;78.20;97574.13;4974569;28;20193;-86
2021/12/31 12:12:28;;;;;;;10.33;7.83;;;;;;;9.30;76.96;97584.81;4975211;28;20204;-84
2021/12/31 12:14:57;;;;;;;11.13;7.40;;;;;;;9.13;76.33;97571.56;4974020;28;20193;-82
2021/12/31 12:17:30;;;;;;;8.50;6.30;;;;;;;9.14;76.71;97570.69;4973912;28;20189;-84
2021/12/31 12:19:57;;;;;;;7.90;5.67;;;;;;;9.25;75.73;97566.03;4957178;28;20193;-84